CheckWX is a tool to help pilots better visualize weather data.  It is not intended as a substitute for an official pre-flight weather briefing.

05:18:19 UTC

FAUP TAF
Pierre Van Ryneveld Airport
Upington, South Africa
TAF FAUP 192200Z 2000/2024 24010KT CAVOK TX34/2013Z TN17/2004Z

Mar-20@
00:00 UTC

Mar-20 @ 00:00 UTC

Mar-21@
00:00 UTC

Mar-21 @ 00:00 UTC

TAF FAUP 192200Z 2000/2024 24010KT CAVOK TX34/2013Z TN17/2004Z
Wind
  • 240° at 10 KTS
Cloud Levels
  • No significant clouds